Terminal Aerodrome Forecast
Issued by NWS Tampa Bay Area, FL

Home | Current Version | Previous Version | Text Only | Print | Product List | Glossary On
Versions: 1 2 3 4 5 6 7 8 9 10 11 12 13 14 15
000
FTUS42 KTBW 152300
TAFFMY
TAF
KFMY 152337Z 1600/1624 09005KT P6SM FEW050 SCT250
     FM160200 VRB03KT P6SM FEW250
     FM161500 10005KT P6SM FEW040 SCT250
     FM161800 31006KT P6SM FEW040 SCT250=

USA.gov is the U.S. government's official web portal to all federal, state and local government web resources and services.